sensor_id;sensor_type;location;lat;lon;timestamp;temperature;humidity
67750;DHT22;54550;48.838;8.828;2023-05-07T00:00:19;10.00;99.90
67750;DHT22;54550;48.838;8.828;2023-05-07T00:02:45;10.00;99.90
67750;DHT22;54550;48.838;8.828;2023-05-07T00:05:11;10.00;99.90
67750;DHT22;54550;48.838;8.828;2023-05-07T00:07:37;10.10;99.90
67750;DHT22;54550;48.838;8.828;2023-05-07T00:10:03;10.20;99.90
67750;DHT22;54550;48.838;8.828;2023-05-07T00:12:29;10.30;99.90
67750;DHT22;54550;48.838;8.828;2023-05-07T00:14:59;10.40;99.90
67750;DHT22;54550;48.838;8.828;2023-05-07T00:17:25;10.50;99.90
67750;DHT22;54550;48.838;8.828;2023-05-07T00:19:50;10.50;99.90
67750;DHT22;54550;48.838;8.828;2023-05-07T00:22:16;10.50;99.90
67750;DHT22;54550;48.838;8.828;2023-05-07T00:24:41;10.50;99.90
67750;DHT22;54550;48.838;8.828;2023-05-07T00:27:07;10.50;99.90
67750;DHT22;54550;48.838;8.828;2023-05-07T00:29:33;10.50;99.90
67750;DHT22;54550;48.838;8.828;2023-05-07T00:31:58;10.40;99.90
67750;DHT22;54550;48.838;8.828;2023-05-07T00:34:24;10.30;99.90
67750;DHT22;54550;48.838;8.828;2023-05-07T00:36:49;10.20;99.90
67750;DHT22;54550;48.838;8.828;2023-05-07T00:39:15;10.20;99.90
67750;DHT22;54550;48.838;8.828;2023-05-07T00:41:41;10.20;99.90
67750;DHT22;54550;48.838;8.828;2023-05-07T00:44:06;10.20;99.90
67750;DHT22;54550;48.838;8.828;2023-05-07T00:46:32;10.20;99.90
67750;DHT22;54550;48.838;8.828;2023-05-07T00:48:59;10.10;99.90
67750;DHT22;54550;48.838;8.828;2023-05-07T00:51:25;10.00;99.90
67750;DHT22;54550;48.838;8.828;2023-05-07T00:53:53;9.90;99.90
67750;DHT22;54550;48.838;8.828;2023-05-07T00:56:22;9.80;99.90
67750;DHT22;54550;48.838;8.828;2023-05-07T00:58:49;9.90;99.90
67750;DHT22;54550;48.838;8.828;2023-05-07T01:01:14;9.80;99.90
67750;DHT22;54550;48.838;8.828;2023-05-07T01:03:42;9.70;99.90
67750;DHT22;54550;48.838;8.828;2023-05-07T01:06:08;9.70;99.90
67750;DHT22;54550;48.838;8.828;2023-05-07T01:08:34;9.70;99.90
67750;DHT22;54550;48.838;8.828;2023-05-07T01:11:00;9.70;99.90
67750;DHT22;54550;48.838;8.828;2023-05-07T01:13:27;9.70;99.90
67750;DHT22;54550;48.838;8.828;2023-05-07T01:15:53;9.70;99.90
67750;DHT22;54550;48.838;8.828;2023-05-07T01:18:19;9.60;99.90
67750;DHT22;54550;48.838;8.828;2023-05-07T01:20:45;9.60;99.90
67750;DHT22;54550;48.838;8.828;2023-05-07T01:23:11;9.60;99.90
67750;DHT22;54550;48.838;8.828;2023-05-07T01:25:36;9.60;99.90
67750;DHT22;54550;48.838;8.828;2023-05-07T01:28:02;9.70;99.90
67750;DHT22;54550;48.838;8.828;2023-05-07T01:30:28;9.70;99.90
67750;DHT22;54550;48.838;8.828;2023-05-07T01:33:09;9.70;99.90
67750;DHT22;54550;48.838;8.828;2023-05-07T01:35:39;9.70;99.90
67750;DHT22;54550;48.838;8.828;2023-05-07T01:38:05;9.80;99.90
67750;DHT22;54550;48.838;8.828;2023-05-07T01:40:32;9.80;99.90
67750;DHT22;54550;48.838;8.828;2023-05-07T01:43:00;9.90;99.90
67750;DHT22;54550;48.838;8.828;2023-05-07T01:45:25;9.90;99.90
67750;DHT22;54550;48.838;8.828;2023-05-07T01:47:52;9.90;99.90
67750;DHT22;54550;48.838;8.828;2023-05-07T01:50:19;10.00;99.90
67750;DHT22;54550;48.838;8.828;2023-05-07T01:52:46;10.00;99.90
67750;DHT22;54550;48.838;8.828;2023-05-07T01:55:12;10.10;99.90
67750;DHT22;54550;48.838;8.828;2023-05-07T01:57:38;10.00;99.90
67750;DHT22;54550;48.838;8.828;2023-05-07T02:00:03;10.10;99.90
67750;DHT22;54550;48.838;8.828;2023-05-07T02:02:30;10.00;99.90
67750;DHT22;54550;48.838;8.828;2023-05-07T02:04:56;10.00;99.90
67750;DHT22;54550;48.838;8.828;2023-05-07T02:07:21;10.00;99.90
67750;DHT22;54550;48.838;8.828;2023-05-07T02:09:47;10.00;99.90
67750;DHT22;54550;48.838;8.828;2023-05-07T02:12:13;9.90;99.90
67750;DHT22;54550;48.838;8.828;2023-05-07T02:14:38;9.80;99.90
67750;DHT22;54550;48.838;8.828;2023-05-07T02:17:04;9.90;99.90
67750;DHT22;54550;48.838;8.828;2023-05-07T02:19:29;9.90;99.90
67750;DHT22;54550;48.838;8.828;2023-05-07T02:21:55;9.90;99.90
67750;DHT22;54550;48.838;8.828;2023-05-07T02:24:20;9.90;99.90
67750;DHT22;54550;48.838;8.828;2023-05-07T02:26:46;10.00;99.90
67750;DHT22;54550;48.838;8.828;2023-05-07T02:29:12;10.00;99.90
67750;DHT22;54550;48.838;8.828;2023-05-07T02:31:37;10.10;99.90
67750;DHT22;54550;48.838;8.828;2023-05-07T02:34:03;10.00;99.90
67750;DHT22;54550;48.838;8.828;2023-05-07T02:36:29;10.00;99.90
67750;DHT22;54550;48.838;8.828;2023-05-07T02:38:54;9.90;99.90
67750;DHT22;54550;48.838;8.828;2023-05-07T02:41:20;9.80;99.90
67750;DHT22;54550;48.838;8.828;2023-05-07T02:43:46;9.90;99.90
67750;DHT22;54550;48.838;8.828;2023-05-07T02:46:11;9.80;99.90
67750;DHT22;54550;48.838;8.828;2023-05-07T02:48:37;9.80;99.90
67750;DHT22;54550;48.838;8.828;2023-05-07T02:51:03;9.70;99.90
67750;DHT22;54550;48.838;8.828;2023-05-07T02:53:30;9.70;99.90
67750;DHT22;54550;48.838;8.828;2023-05-07T02:55:57;9.70;99.90
67750;DHT22;54550;48.838;8.828;2023-05-07T02:58:23;9.60;99.90
67750;DHT22;54550;48.838;8.828;2023-05-07T03:00:49;9.50;99.90
67750;DHT22;54550;48.838;8.828;2023-05-07T03:03:15;9.40;99.90
67750;DHT22;54550;48.838;8.828;2023-05-07T03:05:41;9.20;99.90
67750;DHT22;54550;48.838;8.828;2023-05-07T03:08:07;9.10;99.90
67750;DHT22;54550;48.838;8.828;2023-05-07T03:10:33;9.00;99.90
67750;DHT22;54550;48.838;8.828;2023-05-07T03:12:58;8.90;99.90
67750;DHT22;54550;48.838;8.828;2023-05-07T03:15:24;8.80;99.90
67750;DHT22;54550;48.838;8.828;2023-05-07T03:17:50;8.80;99.90
67750;DHT22;54550;48.838;8.828;2023-05-07T03:20:15;8.80;99.90
67750;DHT22;54550;48.838;8.828;2023-05-07T03:22:41;8.90;99.90
67750;DHT22;54550;48.838;8.828;2023-05-07T03:25:08;9.00;99.90
67750;DHT22;54550;48.838;8.828;2023-05-07T03:27:33;8.90;99.90
67750;DHT22;54550;48.838;8.828;2023-05-07T03:30:00;9.00;99.90
67750;DHT22;54550;48.838;8.828;2023-05-07T03:32:25;9.10;99.90
67750;DHT22;54550;48.838;8.828;2023-05-07T03:34:51;9.10;99.90
67750;DHT22;54550;48.838;8.828;2023-05-07T03:37:17;9.10;99.90
67750;DHT22;54550;48.838;8.828;2023-05-07T03:39:42;9.20;99.90
67750;DHT22;54550;48.838;8.828;2023-05-07T03:42:08;9.30;99.90
67750;DHT22;54550;48.838;8.828;2023-05-07T03:44:33;9.50;99.90
67750;DHT22;54550;48.838;8.828;2023-05-07T03:46:59;9.60;99.90
67750;DHT22;54550;48.838;8.828;2023-05-07T03:49:25;9.60;99.90
67750;DHT22;54550;48.838;8.828;2023-05-07T03:51:50;9.60;99.90
67750;DHT22;54550;48.838;8.828;2023-05-07T03:54:16;9.60;99.90
67750;DHT22;54550;48.838;8.828;2023-05-07T03:56:41;9.50;99.90
67750;DHT22;54550;48.838;8.828;2023-05-07T03:59:07;9.40;99.90
67750;DHT22;54550;48.838;8.828;2023-05-07T04:01:32;9.30;99.90
67750;DHT22;54550;48.838;8.828;2023-05-07T04:03:58;9.20;99.90
67750;DHT22;54550;48.838;8.828;2023-05-07T04:06:23;9.10;99.90
67750;DHT22;54550;48.838;8.828;2023-05-07T04:08:49;9.00;99.90
67750;DHT22;54550;48.838;8.828;2023-05-07T04:11:15;9.00;99.90
67750;DHT22;54550;48.838;8.828;2023-05-07T04:13:40;9.10;99.90
67750;DHT22;54550;48.838;8.828;2023-05-07T04:16:06;9.20;99.90
67750;DHT22;54550;48.838;8.828;2023-05-07T04:18:32;9.30;99.90
67750;DHT22;54550;48.838;8.828;2023-05-07T04:20:57;9.30;99.90
67750;DHT22;54550;48.838;8.828;2023-05-07T04:23:23;9.40;99.90
67750;DHT22;54550;48.838;8.828;2023-05-07T04:25:48;9.50;99.90
67750;DHT22;54550;48.838;8.828;2023-05-07T04:28:14;9.50;99.90
67750;DHT22;54550;48.838;8.828;2023-05-07T04:30:39;9.50;99.90
67750;DHT22;54550;48.838;8.828;2023-05-07T04:33:06;9.60;99.90
67750;DHT22;54550;48.838;8.828;2023-05-07T04:35:32;9.60;99.90
67750;DHT22;54550;48.838;8.828;2023-05-07T04:37:58;9.70;99.90
67750;DHT22;54550;48.838;8.828;2023-05-07T04:40:23;9.80;99.90
67750;DHT22;54550;48.838;8.828;2023-05-07T04:42:49;10.00;99.90
67750;DHT22;54550;48.838;8.828;2023-05-07T04:45:15;10.30;99.90
67750;DHT22;54550;48.838;8.828;2023-05-07T04:47:40;10.50;99.90
67750;DHT22;54550;48.838;8.828;2023-05-07T04:50:09;10.60;99.90
67750;DHT22;54550;48.838;8.828;2023-05-07T04:52:35;10.70;99.90
67750;DHT22;54550;48.838;8.828;2023-05-07T04:55:00;10.70;99.90
67750;DHT22;54550;48.838;8.828;2023-05-07T04:57:26;10.60;99.90
67750;DHT22;54550;48.838;8.828;2023-05-07T04:59:53;10.60;99.90
67750;DHT22;54550;48.838;8.828;2023-05-07T05:02:18;10.60;99.90
67750;DHT22;54550;48.838;8.828;2023-05-07T05:04:44;10.70;99.90
67750;DHT22;54550;48.838;8.828;2023-05-07T05:07:10;10.70;99.90
67750;DHT22;54550;48.838;8.828;2023-05-07T05:09:35;10.80;99.90
67750;DHT22;54550;48.838;8.828;2023-05-07T05:12:01;10.90;99.90
67750;DHT22;54550;48.838;8.828;2023-05-07T05:14:27;10.90;99.90
67750;DHT22;54550;48.838;8.828;2023-05-07T05:16:52;11.00;99.90
67750;DHT22;54550;48.838;8.828;2023-05-07T05:19:18;11.00;99.90
67750;DHT22;54550;48.838;8.828;2023-05-07T05:21:43;11.10;99.90
67750;DHT22;54550;48.838;8.828;2023-05-07T05:24:09;11.30;99.90
67750;DHT22;54550;48.838;8.828;2023-05-07T05:26:35;11.60;99.90
67750;DHT22;54550;48.838;8.828;2023-05-07T05:29:00;12.00;99.90
67750;DHT22;54550;48.838;8.828;2023-05-07T05:31:26;12.60;99.90
67750;DHT22;54550;48.838;8.828;2023-05-07T05:33:51;13.20;99.90
67750;DHT22;54550;48.838;8.828;2023-05-07T05:36:17;13.80;99.90
67750;DHT22;54550;48.838;8.828;2023-05-07T05:38:43;14.30;99.90
67750;DHT22;54550;48.838;8.828;2023-05-07T05:41:09;14.80;99.90
67750;DHT22;54550;48.838;8.828;2023-05-07T05:43:35;15.20;99.90
67750;DHT22;54550;48.838;8.828;2023-05-07T05:46:01;15.40;99.90
67750;DHT22;54550;48.838;8.828;2023-05-07T05:48:26;15.50;99.90
67750;DHT22;54550;48.838;8.828;2023-05-07T05:50:52;15.60;99.90
67750;DHT22;54550;48.838;8.828;2023-05-07T05:53:18;15.30;99.90
67750;DHT22;54550;48.838;8.828;2023-05-07T05:55:43;15.00;99.90
67750;DHT22;54550;48.838;8.828;2023-05-07T05:58:09;15.20;99.90
67750;DHT22;54550;48.838;8.828;2023-05-07T06:00:35;15.60;99.90
67750;DHT22;54550;48.838;8.828;2023-05-07T06:03:00;16.00;99.90
67750;DHT22;54550;48.838;8.828;2023-05-07T06:05:26;16.20;99.90
67750;DHT22;54550;48.838;8.828;2023-05-07T06:07:52;15.90;99.90
67750;DHT22;54550;48.838;8.828;2023-05-07T06:10:17;16.20;99.90
67750;DHT22;54550;48.838;8.828;2023-05-07T06:12:43;16.80;99.90
67750;DHT22;54550;48.838;8.828;2023-05-07T06:15:10;17.50;99.90
67750;DHT22;54550;48.838;8.828;2023-05-07T06:17:35;17.90;99.90
67750;DHT22;54550;48.838;8.828;2023-05-07T06:20:01;17.70;99.90
67750;DHT22;54550;48.838;8.828;2023-05-07T06:22:26;17.90;99.90
67750;DHT22;54550;48.838;8.828;2023-05-07T06:24:52;18.30;99.90
67750;DHT22;54550;48.838;8.828;2023-05-07T06:27:18;18.60;99.90
67750;DHT22;54550;48.838;8.828;2023-05-07T06:29:43;18.60;99.90
67750;DHT22;54550;48.838;8.828;2023-05-07T06:32:10;19.00;99.90
67750;DHT22;54550;48.838;8.828;2023-05-07T06:34:36;19.20;99.90
67750;DHT22;54550;48.838;8.828;2023-05-07T06:37:02;19.10;99.90
67750;DHT22;54550;48.838;8.828;2023-05-07T06:39:28;19.20;99.90
67750;DHT22;54550;48.838;8.828;2023-05-07T06:41:54;19.30;99.90
67750;DHT22;54550;48.838;8.828;2023-05-07T06:44:19;19.60;99.90
67750;DHT22;54550;48.838;8.828;2023-05-07T06:46:45;19.50;99.90
67750;DHT22;54550;48.838;8.828;2023-05-07T06:49:12;19.10;99.90
67750;DHT22;54550;48.838;8.828;2023-05-07T06:51:38;18.90;99.90
67750;DHT22;54550;48.838;8.828;2023-05-07T06:54:04;19.10;99.90
67750;DHT22;54550;48.838;8.828;2023-05-07T06:56:33;19.10;99.90
67750;DHT22;54550;48.838;8.828;2023-05-07T06:59:00;19.20;99.90
67750;DHT22;54550;48.838;8.828;2023-05-07T07:01:26;19.10;99.90
67750;DHT22;54550;48.838;8.828;2023-05-07T07:03:52;19.20;99.90
67750;DHT22;54550;48.838;8.828;2023-05-07T07:06:17;19.50;99.90
67750;DHT22;54550;48.838;8.828;2023-05-07T07:08:43;19.60;99.90
67750;DHT22;54550;48.838;8.828;2023-05-07T07:11:10;19.70;99.90
67750;DHT22;54550;48.838;8.828;2023-05-07T07:13:35;20.00;99.90
67750;DHT22;54550;48.838;8.828;2023-05-07T07:16:01;20.10;99.90
67750;DHT22;54550;48.838;8.828;2023-05-07T07:18:27;20.20;99.90
67750;DHT22;54550;48.838;8.828;2023-05-07T07:20:52;20.10;99.90
67750;DHT22;54550;48.838;8.828;2023-05-07T07:23:18;20.00;99.90
67750;DHT22;54550;48.838;8.828;2023-05-07T07:25:44;19.70;99.90
67750;DHT22;54550;48.838;8.828;2023-05-07T07:28:10;19.30;99.90
67750;DHT22;54550;48.838;8.828;2023-05-07T07:30:36;19.10;99.90
67750;DHT22;54550;48.838;8.828;2023-05-07T07:33:02;19.10;99.90
67750;DHT22;54550;48.838;8.828;2023-05-07T07:35:29;18.70;99.90
67750;DHT22;54550;48.838;8.828;2023-05-07T07:37:55;18.60;99.90
67750;DHT22;54550;48.838;8.828;2023-05-07T07:40:20;18.60;99.90
67750;DHT22;54550;48.838;8.828;2023-05-07T07:42:46;18.50;99.90
67750;DHT22;54550;48.838;8.828;2023-05-07T07:45:12;18.30;99.90
67750;DHT22;54550;48.838;8.828;2023-05-07T07:47:38;18.20;99.90
67750;DHT22;54550;48.838;8.828;2023-05-07T07:50:04;18.10;99.90
67750;DHT22;54550;48.838;8.828;2023-05-07T07:52:30;18.10;99.90
67750;DHT22;54550;48.838;8.828;2023-05-07T07:54:56;18.20;99.90
67750;DHT22;54550;48.838;8.828;2023-05-07T07:57:22;18.30;99.90
67750;DHT22;54550;48.838;8.828;2023-05-07T07:59:47;18.50;99.90
67750;DHT22;54550;48.838;8.828;2023-05-07T08:02:13;19.10;99.90
67750;DHT22;54550;48.838;8.828;2023-05-07T08:04:38;19.60;99.90
67750;DHT22;54550;48.838;8.828;2023-05-07T08:07:04;19.80;99.90
67750;DHT22;54550;48.838;8.828;2023-05-07T08:09:29;19.70;99.90
67750;DHT22;54550;48.838;8.828;2023-05-07T08:11:55;19.70;99.90
67750;DHT22;54550;48.838;8.828;2023-05-07T08:14:21;19.70;99.90
67750;DHT22;54550;48.838;8.828;2023-05-07T08:16:46;20.20;99.90
67750;DHT22;54550;48.838;8.828;2023-05-07T08:19:12;20.40;99.90
67750;DHT22;54550;48.838;8.828;2023-05-07T08:21:39;20.60;99.90
67750;DHT22;54550;48.838;8.828;2023-05-07T08:24:06;20.70;99.90
67750;DHT22;54550;48.838;8.828;2023-05-07T08:26:31;21.40;99.90
67750;DHT22;54550;48.838;8.828;2023-05-07T08:28:57;22.10;99.90
67750;DHT22;54550;48.838;8.828;2023-05-07T08:31:22;23.10;99.90
67750;DHT22;54550;48.838;8.828;2023-05-07T08:33:48;23.60;99.90
67750;DHT22;54550;48.838;8.828;2023-05-07T08:36:13;23.60;99.90
67750;DHT22;54550;48.838;8.828;2023-05-07T08:38:39;23.50;99.90
67750;DHT22;54550;48.838;8.828;2023-05-07T08:41:10;23.60;99.90
67750;DHT22;54550;48.838;8.828;2023-05-07T08:43:36;23.50;99.90
67750;DHT22;54550;48.838;8.828;2023-05-07T08:46:04;23.40;99.90
67750;DHT22;54550;48.838;8.828;2023-05-07T08:48:31;23.40;99.90
67750;DHT22;54550;48.838;8.828;2023-05-07T08:50:58;23.30;99.90
67750;DHT22;54550;48.838;8.828;2023-05-07T08:53:24;23.20;99.90
67750;DHT22;54550;48.838;8.828;2023-05-07T08:55:51;23.10;99.90
67750;DHT22;54550;48.838;8.828;2023-05-07T08:58:17;23.50;99.90
67750;DHT22;54550;48.838;8.828;2023-05-07T09:00:43;23.80;99.90
67750;DHT22;54550;48.838;8.828;2023-05-07T09:03:09;23.90;99.90
67750;DHT22;54550;48.838;8.828;2023-05-07T09:05:37;24.00;99.90
67750;DHT22;54550;48.838;8.828;2023-05-07T09:08:03;23.90;99.90
67750;DHT22;54550;48.838;8.828;2023-05-07T09:10:33;23.80;99.90
67750;DHT22;54550;48.838;8.828;2023-05-07T09:12:59;23.90;99.90
67750;DHT22;54550;48.838;8.828;2023-05-07T09:15:24;24.10;99.90
67750;DHT22;54550;48.838;8.828;2023-05-07T09:17:50;23.90;99.90
67750;DHT22;54550;48.838;8.828;2023-05-07T09:20:16;24.00;99.90
67750;DHT22;54550;48.838;8.828;2023-05-07T09:22:42;24.40;99.90
67750;DHT22;54550;48.838;8.828;2023-05-07T09:25:09;24.70;99.90
67750;DHT22;54550;48.838;8.828;2023-05-07T09:27:36;25.20;99.90
67750;DHT22;54550;48.838;8.828;2023-05-07T09:30:06;25.10;99.90
67750;DHT22;54550;48.838;8.828;2023-05-07T09:32:35;24.90;99.90
67750;DHT22;54550;48.838;8.828;2023-05-07T09:35:03;25.40;99.90
67750;DHT22;54550;48.838;8.828;2023-05-07T09:37:31;25.80;99.90
67750;DHT22;54550;48.838;8.828;2023-05-07T09:39:56;25.50;99.90
67750;DHT22;54550;48.838;8.828;2023-05-07T09:42:25;25.00;99.90
67750;DHT22;54550;48.838;8.828;2023-05-07T09:44:53;24.30;99.90
67750;DHT22;54550;48.838;8.828;2023-05-07T09:47:20;23.60;99.90
67750;DHT22;54550;48.838;8.828;2023-05-07T09:49:48;23.40;99.90
67750;DHT22;54550;48.838;8.828;2023-05-07T09:52:16;23.20;99.90
67750;DHT22;54550;48.838;8.828;2023-05-07T09:54:41;22.80;99.90
67750;DHT22;54550;48.838;8.828;2023-05-07T09:57:10;22.60;99.90
67750;DHT22;54550;48.838;8.828;2023-05-07T09:59:37;22.40;99.90
67750;DHT22;54550;48.838;8.828;2023-05-07T10:02:04;22.20;99.90
67750;DHT22;54550;48.838;8.828;2023-05-07T10:04:31;22.00;99.90
67750;DHT22;54550;48.838;8.828;2023-05-07T10:06:58;22.10;99.90
67750;DHT22;54550;48.838;8.828;2023-05-07T10:09:25;22.20;99.90
67750;DHT22;54550;48.838;8.828;2023-05-07T10:11:51;22.10;99.90
67750;DHT22;54550;48.838;8.828;2023-05-07T10:14:17;22.10;99.90
67750;DHT22;54550;48.838;8.828;2023-05-07T10:16:44;22.20;99.90
67750;DHT22;54550;48.838;8.828;2023-05-07T10:19:10;22.10;99.90
67750;DHT22;54550;48.838;8.828;2023-05-07T10:21:37;22.20;99.90
67750;DHT22;54550;48.838;8.828;2023-05-07T10:24:09;22.20;99.90
67750;DHT22;54550;48.838;8.828;2023-05-07T10:26:44;22.20;99.90
67750;DHT22;54550;48.838;8.828;2023-05-07T10:29:33;22.30;99.90
67750;DHT22;54550;48.838;8.828;2023-05-07T10:34:37;22.20;99.90
67750;DHT22;54550;48.838;8.828;2023-05-07T10:37:04;22.20;99.90
67750;DHT22;54550;48.838;8.828;2023-05-07T10:39:31;22.00;99.90
67750;DHT22;54550;48.838;8.828;2023-05-07T10:41:56;21.90;99.90
67750;DHT22;54550;48.838;8.828;2023-05-07T10:44:29;21.70;99.90
67750;DHT22;54550;48.838;8.828;2023-05-07T10:47:11;21.40;99.90
67750;DHT22;54550;48.838;8.828;2023-05-07T10:52:14;21.30;99.90
67750;DHT22;54550;48.838;8.828;2023-05-07T10:54:40;21.20;99.90
67750;DHT22;54550;48.838;8.828;2023-05-07T10:59:56;21.20;99.90
67750;DHT22;54550;48.838;8.828;2023-05-07T11:02:21;21.20;99.90
67750;DHT22;54550;48.838;8.828;2023-05-07T11:05:20;21.20;99.90
67750;DHT22;54550;48.838;8.828;2023-05-07T11:07:54;21.10;99.90
67750;DHT22;54550;48.838;8.828;2023-05-07T11:10:21;21.00;99.90
67750;DHT22;54550;48.838;8.828;2023-05-07T11:12:51;21.00;99.90
67750;DHT22;54550;48.838;8.828;2023-05-07T11:15:35;21.10;99.90
67750;DHT22;54550;48.838;8.828;2023-05-07T11:18:01;21.10;99.90
67750;DHT22;54550;48.838;8.828;2023-05-07T11:20:46;21.00;99.90
67750;DHT22;54550;48.838;8.828;2023-05-07T11:28:42;21.50;99.90
67750;DHT22;54550;48.838;8.828;2023-05-07T11:31:08;21.60;99.90
67750;DHT22;54550;48.838;8.828;2023-05-07T11:33:34;21.60;99.90
67750;DHT22;54550;48.838;8.828;2023-05-07T11:36:03;21.70;99.90
67750;DHT22;54550;48.838;8.828;2023-05-07T11:38:30;21.90;99.90
67750;DHT22;54550;48.838;8.828;2023-05-07T11:40:59;22.20;99.90
67750;DHT22;54550;48.838;8.828;2023-05-07T11:43:30;22.60;99.90
67750;DHT22;54550;48.838;8.828;2023-05-07T11:46:08;22.70;99.90
67750;DHT22;54550;48.838;8.828;2023-05-07T11:48:34;22.90;99.90
67750;DHT22;54550;48.838;8.828;2023-05-07T11:51:03;22.80;99.90
67750;DHT22;54550;48.838;8.828;2023-05-07T11:53:36;22.90;99.90
67750;DHT22;54550;48.838;8.828;2023-05-07T11:56:10;23.00;99.90
67750;DHT22;54550;48.838;8.828;2023-05-07T11:58:36;23.20;99.90
67750;DHT22;54550;48.838;8.828;2023-05-07T12:01:01;23.20;99.90
67750;DHT22;54550;48.838;8.828;2023-05-07T12:03:27;23.10;99.90
67750;DHT22;54550;48.838;8.828;2023-05-07T12:05:53;23.20;99.90
67750;DHT22;54550;48.838;8.828;2023-05-07T12:08:20;23.30;99.90
67750;DHT22;54550;48.838;8.828;2023-05-07T12:10:47;23.20;99.90
67750;DHT22;54550;48.838;8.828;2023-05-07T12:13:25;23.40;99.90
67750;DHT22;54550;48.838;8.828;2023-05-07T12:15:57;23.40;99.90
67750;DHT22;54550;48.838;8.828;2023-05-07T12:18:23;23.70;99.90
67750;DHT22;54550;48.838;8.828;2023-05-07T12:20:50;23.90;99.90
67750;DHT22;54550;48.838;8.828;2023-05-07T12:23:16;24.20;99.90
67750;DHT22;54550;48.838;8.828;2023-05-07T12:25:43;24.40;99.90
67750;DHT22;54550;48.838;8.828;2023-05-07T12:28:19;24.00;99.90
67750;DHT22;54550;48.838;8.828;2023-05-07T12:30:48;23.90;99.90
67750;DHT22;54550;48.838;8.828;2023-05-07T12:33:23;23.60;99.90
67750;DHT22;54550;48.838;8.828;2023-05-07T12:35:48;23.80;99.90
67750;DHT22;54550;48.838;8.828;2023-05-07T12:38:16;23.70;99.90
67750;DHT22;54550;48.838;8.828;2023-05-07T12:40:48;23.50;99.90
67750;DHT22;54550;48.838;8.828;2023-05-07T12:43:27;23.10;99.90
67750;DHT22;54550;48.838;8.828;2023-05-07T12:45:57;22.60;99.90
67750;DHT22;54550;48.838;8.828;2023-05-07T12:48:23;21.60;99.90
67750;DHT22;54550;48.838;8.828;2023-05-07T12:50:50;20.70;99.90
67750;DHT22;54550;48.838;8.828;2023-05-07T12:53:15;20.40;99.90
67750;DHT22;54550;48.838;8.828;2023-05-07T12:55:46;20.10;99.90
67750;DHT22;54550;48.838;8.828;2023-05-07T12:58:25;20.10;99.90
67750;DHT22;54550;48.838;8.828;2023-05-07T13:00:52;20.10;99.90
67750;DHT22;54550;48.838;8.828;2023-05-07T13:03:29;20.10;99.90
67750;DHT22;54550;48.838;8.828;2023-05-07T13:05:57;19.90;99.90
67750;DHT22;54550;48.838;8.828;2023-05-07T13:10:53;19.50;99.90
67750;DHT22;54550;48.838;8.828;2023-05-07T13:13:20;19.20;99.90
67750;DHT22;54550;48.838;8.828;2023-05-07T13:15:46;18.80;99.90
67750;DHT22;54550;48.838;8.828;2023-05-07T13:18:12;18.50;99.90
67750;DHT22;54550;48.838;8.828;2023-05-07T13:20:37;18.20;99.90
67750;DHT22;54550;48.838;8.828;2023-05-07T13:23:03;17.90;99.90
67750;DHT22;54550;48.838;8.828;2023-05-07T13:25:30;17.70;99.90
67750;DHT22;54550;48.838;8.828;2023-05-07T13:27:57;17.50;99.90
67750;DHT22;54550;48.838;8.828;2023-05-07T13:30:22;17.30;99.90
67750;DHT22;54550;48.838;8.828;2023-05-07T13:32:48;17.10;99.90
67750;DHT22;54550;48.838;8.828;2023-05-07T13:35:15;16.90;99.90
67750;DHT22;54550;48.838;8.828;2023-05-07T13:37:40;16.80;99.90
67750;DHT22;54550;48.838;8.828;2023-05-07T13:40:06;16.50;99.90
67750;DHT22;54550;48.838;8.828;2023-05-07T13:42:32;16.20;99.90
67750;DHT22;54550;48.838;8.828;2023-05-07T13:44:57;15.80;99.90
67750;DHT22;54550;48.838;8.828;2023-05-07T13:47:23;15.60;99.90
67750;DHT22;54550;48.838;8.828;2023-05-07T13:49:48;15.30;99.90
67750;DHT22;54550;48.838;8.828;2023-05-07T13:52:17;15.00;99.90
67750;DHT22;54550;48.838;8.828;2023-05-07T13:54:43;14.80;99.90
67750;DHT22;54550;48.838;8.828;2023-05-07T13:57:08;14.60;99.90
67750;DHT22;54550;48.838;8.828;2023-05-07T13:59:34;14.60;99.90
67750;DHT22;54550;48.838;8.828;2023-05-07T14:02:00;14.50;99.90
67750;DHT22;54550;48.838;8.828;2023-05-07T14:04:25;14.40;99.90
67750;DHT22;54550;48.838;8.828;2023-05-07T14:06:51;14.90;99.90
67750;DHT22;54550;48.838;8.828;2023-05-07T14:09:16;14.20;99.90
67750;DHT22;54550;48.838;8.828;2023-05-07T14:11:42;14.10;99.90
67750;DHT22;54550;48.838;8.828;2023-05-07T14:14:08;14.00;99.90
67750;DHT22;54550;48.838;8.828;2023-05-07T14:16:36;13.90;99.90
67750;DHT22;54550;48.838;8.828;2023-05-07T14:19:02;14.00;99.90
67750;DHT22;54550;48.838;8.828;2023-05-07T14:21:27;14.00;99.90
67750;DHT22;54550;48.838;8.828;2023-05-07T14:23:53;14.30;99.90
67750;DHT22;54550;48.838;8.828;2023-05-07T14:26:20;14.20;99.90
67750;DHT22;54550;48.838;8.828;2023-05-07T14:28:46;11.40;99.90
67750;DHT22;54550;48.838;8.828;2023-05-07T14:31:12;14.50;99.90
67750;DHT22;54550;48.838;8.828;2023-05-07T14:33:38;14.60;99.90
67750;DHT22;54550;48.838;8.828;2023-05-07T14:36:03;14.60;99.90
67750;DHT22;54550;48.838;8.828;2023-05-07T14:38:30;14.60;99.90
67750;DHT22;54550;48.838;8.828;2023-05-07T14:40:58;14.60;99.90
67750;DHT22;54550;48.838;8.828;2023-05-07T14:43:23;14.70;99.90
67750;DHT22;54550;48.838;8.828;2023-05-07T14:45:50;14.80;99.90
67750;DHT22;54550;48.838;8.828;2023-05-07T14:48:16;14.80;99.90
67750;DHT22;54550;48.838;8.828;2023-05-07T14:50:42;14.80;99.90
67750;DHT22;54550;48.838;8.828;2023-05-07T14:53:07;14.80;99.90
67750;DHT22;54550;48.838;8.828;2023-05-07T14:55:34;14.90;99.90
67750;DHT22;54550;48.838;8.828;2023-05-07T14:58:00;14.90;99.90
67750;DHT22;54550;48.838;8.828;2023-05-07T15:00:26;15.00;99.90
67750;DHT22;54550;48.838;8.828;2023-05-07T15:02:51;15.10;99.90
67750;DHT22;54550;48.838;8.828;2023-05-07T15:05:17;15.10;99.90
67750;DHT22;54550;48.838;8.828;2023-05-07T15:07:44;15.20;99.90
67750;DHT22;54550;48.838;8.828;2023-05-07T15:10:10;15.20;99.90
67750;DHT22;54550;48.838;8.828;2023-05-07T15:12:36;15.40;99.90
67750;DHT22;54550;48.838;8.828;2023-05-07T15:15:01;15.50;99.90
67750;DHT22;54550;48.838;8.828;2023-05-07T15:17:27;15.40;99.90
67750;DHT22;54550;48.838;8.828;2023-05-07T15:19:52;15.50;99.90
67750;DHT22;54550;48.838;8.828;2023-05-07T15:22:18;15.60;99.90
67750;DHT22;54550;48.838;8.828;2023-05-07T15:24:44;15.80;99.90
67750;DHT22;54550;48.838;8.828;2023-05-07T15:27:10;15.80;99.90
67750;DHT22;54550;48.838;8.828;2023-05-07T15:29:36;15.90;99.90
67750;DHT22;54550;48.838;8.828;2023-05-07T15:32:02;15.90;99.90
67750;DHT22;54550;48.838;8.828;2023-05-07T15:34:27;15.80;99.90
67750;DHT22;54550;48.838;8.828;2023-05-07T15:36:54;15.90;99.90
67750;DHT22;54550;48.838;8.828;2023-05-07T15:39:20;15.90;99.90
67750;DHT22;54550;48.838;8.828;2023-05-07T15:41:45;15.80;99.90
67750;DHT22;54550;48.838;8.828;2023-05-07T15:44:11;15.90;99.90
67750;DHT22;54550;48.838;8.828;2023-05-07T15:46:37;16.00;99.90